ADDS METAR Data INFO
IDs: Format: Raw Decoded Include TAF

Data at: 0023 UTC 11 Dec 2017

KDTS 102353Z 00000KT 10SM CLR 11/M01 A3033 RMK AO2 SLP269 T01061011 10144 20106 53006
KDTS 102253Z 00000KT 10SM CLR 12/M03 A3032 RMK AO2 SLP265 T01171028
KDTS 102153Z 33007KT 10SM CLR 14/M04 A3031 RMK AO2 SLP263 T01391044
KDTS 102053Z 32006KT 10SM CLR 14/M04 A3031 RMK AO2 SLP263 T01441044 56019
KDTS 101953Z VRB04KT 10SM CLR 13/M05 A3031 RMK AO2 SLP263 T01331050
KDTS 101853Z 32006KT 10SM CLR 12/M05 A3032 RMK AO2 SLP267 T01221050
KDTS 101753Z VRB03KT 10SM CLR 11/M05 A3037 RMK AO2 SLP282 T01111050 10111 20039 58014
KDTS 101653Z 34007KT 300V020 10SM CLR 10/M04 A3039 RMK AO2 SLP291 T01001044
KDTS 101553Z 03006KT 10SM CLR 09/M03 A3039 RMK AO2 SLP291 T00891033
KDTS 101453Z 36006KT 10SM CLR 07/M03 A3041 RMK AO2 SLP295 T00721033 53019
KDTS 101353Z 01006KT 10SM CLR 06/M02 A3039 RMK AO2 SLP289 T00561022
KDTS 101253Z 36005KT 10SM CLR 04/M01 A3037 RMK AO2 SLP282 T00391011
KDTS 101153Z 36006KT 10SM CLR 04/M02 A3035 RMK AO2 SLP277 T00441017 10072 20044 53010
KDTS 101053Z AUTO 35009KT 10SM CLR 04/M01 A3033 RMK AO2 SLP270 T00441011
KDTS 100953Z AUTO 33009KT 10SM CLR 05/M01 A3033 RMK AO2 SLP269 T00501006
KDTS 100853Z AUTO 32009KT 10SM CLR 06/00 A3032 RMK AO2 SLP267 T00610000 53013
KDTS 100753Z AUTO 31007KT 10SM CLR 07/00 A3030 RMK AO2 SLP261 T00670000
KDTS 100653Z AUTO 31006KT 10SM CLR 07/M01 A3030 RMK AO2 SLP258 T00721006
KDTS 100553Z AUTO VRB05KT 10SM CLR 07/M01 A3028 RMK AO2 SLP254 T00721011 10083 20072 401060022 53013
KDTS 100453Z AUTO 31004KT 10SM CLR 07/M02 A3027 RMK AO2 SLP249 T00721017
KDTS 100353Z 31005KT 10SM CLR 08/M02 A3026 RMK AO2 SLP246 T00781022
KDTS 100253Z VRB04KT 10SM CLR 08/M02 A3025 RMK AO2 SLP241 T00781017 53025
KDTS 100153Z 00000KT 10SM CLR 08/M02 A3022 RMK AO2 SLP232 T00781022
KDTS 100053Z VRB03KT 10SM CLR 08/M03 A3019 RMK AO2 SLP221 T00831033
KDTS 092353Z 00000KT 10SM CLR 08/M03 A3017 RMK AO2 SLP216 T00831033 10106 20083 53022
KDTS 092253Z 31005KT 10SM CLR 08/M04 A3014 RMK AO2 SLP207 T00831039
KDTS 092153Z 32006KT 10SM CLR 09/M05 A3013 RMK AO2 SLP201 T00941050
KDTS 092053Z 31005KT 10SM CLR 10/M05 A3011 RMK AO2 SLP194 T01001050 55005
KDTS 091953Z 33012KT 10SM CLR 10/M04 A3009 RMK AO2 SLP189 T01001044
KDTS 091853Z 32012G17KT 10SM CLR 09/M05 A3011 RMK AO2 SLP195 T00941050
KDTS 091753Z 32011KT 10SM CLR 09/M04 A3012 RMK AO2 SLP199 T00891044 10089 20022 58012
KDTS 091653Z 33013G19KT 10SM CLR 08/M06 A3014 RMK AO2 SLP206 T00781056
KDTS 091553Z 32011KT 10SM CLR 07/M03 A3015 RMK AO2 SLP208 T00671033
KDTS 091453Z 32008G16KT 10SM CLR 04/M02 A3016 RMK AO2 SLP212 T00441017 51028
KDTS 091353Z 31010G16KT 260V330 10SM SCT013 03/M01 A3013 RMK AO2 SLP203 T00331011
KDTS 091313Z VRB05G14KT 10SM BKN014 03/M01 A3012 RMK AO2 T00281011
KDTS 091306Z 32007KT 10SM SCT012 BKN017 03/M01 A3012 RMK AO2 T00281011
KDTS 091253Z 32007KT 280V340 10SM SCT014 03/M01 A3011 RMK AO2 SLP194 T00281011